Taugas — V2GS2 — position and weather

sailwx.info

Track history (hours):
 
Tides and Currents Weather Stations Pressure Air Temp Water Temp Dewpoint Dewpoint Depression Visibility Wind Speed Wind Dir Waves Ship Positions

Taugas

Last reported at 2017-Nov-14 18:14 UTC. Time now 2017-Nov-23 17:08 UTC.
Position N 36°27' E 014°42'.
Warning: this ship's position is 8 days out of date.

Length 146 m; draft 7.3 m.

Type: Tanker. MMSI: 304067000.

Date/timePositionNaut miles runAvg speedWind from/ knotsBaromVisibWave heightAir tempDewpointWater temp
2017-Nov-14 18:14N 36°27' E 014°42'416.1
2017-Nov-14 17:59N 36°27' E 014°37'816.1
2017-Nov-14 17:28N 36°27' E 014°27'915.9
2017-Nov-14 16:55N 36°30' E 014°16'715.9
2017-Nov-14 16:28N 36°32' E 014°08'915.7
2017-Nov-14 15:53N 36°35' E 013°57'615.6
2017-Nov-14 15:30N 36°37' E 013°50'63314.7
2017-Nov-12 20:29N 36°43' E 000°41'1516.2
2017-Nov-12 19:35N 36°41' E 000°23'316.4
2017-Nov-12 19:26N 36°40' E 000°20'716.2
2017-Nov-12 18:59N 36°38' E 000°12'815.8
2017-Nov-12 18:30N 36°37' E 000°02'3416.2
2017-Nov-12 16:23N 36°30' W 000°40'22216.4
2017-Nov-12 02:51N 35°58' W 005°12'516.0
2017-Nov-12 02:30N 35°58' W 005°18'816.8
2017-Nov-12 02:00N 35°57' W 005°29'17415.7
2017-Nov-11 14:57N 36°26' W 009°01'715.0
2017-Nov-11 14:29N 36°28' W 009°10'715.1
2017-Nov-11 14:00N 36°30' W 009°18'815.5
2017-Nov-11 13:30N 36°35' W 009°26'815.7
2017-Nov-11 13:00N 36°41' W 009°32'815.3
2017-Nov-11 12:29N 36°47' W 009°38'815.6
2017-Nov-11 12:00N 36°55' W 009°40'815.5
2017-Nov-11 11:30N 37°02' W 009°42'815.4
2017-Nov-11 11:00N 37°10' W 009°43'714.4
2017-Nov-11 10:31N 37°17' W 009°44'611.8
2017-Nov-11 10:00N 37°23' W 009°44'2 1.3
2017-Nov-11 08:49N 37°24' W 009°45'0 1.2
2017-Nov-11 08:28N 37°25' W 009°45'1 1.2
2017-Nov-11 07:58N 37°25' W 009°46'1 1.1
2017-Nov-11 07:28N 37°26' W 009°46'1 1.1
2017-Nov-11 06:58N 37°26' W 009°46'1 1.1
2017-Nov-11 06:28N 37°26' W 009°47'1 1.1
2017-Nov-11 05:58N 37°27' W 009°47'1 1.1
2017-Nov-11 05:25N 37°27' W 009°48'1 1.1
2017-Nov-11 04:58N 37°28' W 009°48'0 1.0
2017-Nov-11 04:28N 37°28' W 009°48'0 1.0
2017-Nov-11 03:58N 37°29' W 009°49'0 0.5
2017-Nov-11 03:30N 37°29' W 009°49'510.5
2017-Nov-11 03:01N 37°34' W 009°50'815.5
2017-Nov-11 02:30N 37°41' W 009°53'815.5
2017-Nov-11 02:00N 37°49' W 009°56'815.3
2017-Nov-11 01:30N 37°56' W 009°58'815.2
2017-Nov-11 00:58N 38°04' W 010°01'715.7
2017-Nov-11 00:30N 38°11' W 010°03'815.4
2017-Nov-11 00:00N 38°18' W 010°05'815.3
2017-Nov-10 23:30N 38°26' W 010°08'815.2
2017-Nov-10 22:59N 38°34' W 010°11'715.0
2017-Nov-10 22:30N 38°40' W 010°13'714.7
2017-Nov-10 22:00N 38°48' W 010°14'815.2
2017-Nov-10 21:30N 38°55' W 010°15'815.5
2017-Nov-10 21:00N 39°03' W 010°16'52515.1
2017-Nov-09 10:07N 47°32' W 007°20'615.0
2017-Nov-09 09:45N 47°37' W 007°16'1715.6
2017-Nov-09 08:38N 47°52' W 007°04'215.5
2017-Nov-09 08:29N 47°55' W 007°03'815.4
2017-Nov-09 07:59N 48°02' W 006°58'3214.6
2017-Nov-09 05:46N 48°31' W 006°37'10214.0
2017-Nov-08 22:27N 49°54' W 005°08'711.5
2017-Nov-08 21:52N 49°59' W 005°01'4 9.4
2017-Nov-08 21:29N 50°02' W 004°57'0 0.1
2017-Nov-08 17:56N 50°02' W 004°57'0 0.1
2017-Nov-08 17:20N 50°02' W 004°57'0 0.0
2017-Nov-08 16:50N 50°02' W 004°57'0 0.0
2017-Nov-08 16:29N 50°02' W 004°57'0 0.1
2017-Nov-08 15:59N 50°02' W 004°57'0 0.0
2017-Nov-08 14:23N 50°02' W 004°57'0 0.0
2017-Nov-08 13:53N 50°02' W 004°57'0 0.0
2017-Nov-08 13:29N 50°02' W 004°57'0 0.0
2017-Nov-08 12:17N 50°02' W 004°57'0 0.0
2017-Nov-08 11:14N 50°02' W 004°57'0 0.0
2017-Nov-08 10:53N 50°02' W 004°57'0 0.0
2017-Nov-08 10:26N 50°02' W 004°57'0 0.1
2017-Nov-08 09:53N 50°02' W 004°57'0 0.2
2017-Nov-08 09:29N 50°02' W 004°57'0 0.1
2017-Nov-08 08:56N 50°02' W 004°57'0 0.0
2017-Nov-08 05:38N 50°02' W 004°57'0 0.1
2017-Nov-08 05:29N 50°02' W 004°57'0 0.0
2017-Nov-08 03:59N 50°02' W 004°57'0 0.2
2017-Nov-08 03:29N 50°02' W 004°57'0 0.0
2017-Nov-08 02:47N 50°02' W 004°57'0 0.0
2017-Nov-08 02:26N 50°02' W 004°57'0 0.0
2017-Nov-08 01:59N 50°02' W 004°57'0 0.0
2017-Nov-08 01:29N 50°02' W 004°57'0 0.0
2017-Nov-08 00:50N 50°02' W 004°57'0 0.0
2017-Nov-08 00:23N 50°02' W 004°57'0 0.0
2017-Nov-07 23:59N 50°02' W 004°57'0 0.1
2017-Nov-07 23:20N 50°02' W 004°57'0 0.2
2017-Nov-07 22:41N 50°02' W 004°57'0 0.1
2017-Nov-07 22:29N 50°02' W 004°57'0 0.0
2017-Nov-07 21:59N 50°02' W 004°57'0 0.1
2017-Nov-07 21:23N 50°02' W 004°57'0 0.0
2017-Nov-07 20:47N 50°02' W 004°57'0 0.0
2017-Nov-07 18:53N 50°02' W 004°57'0 0.0
2017-Nov-07 18:29N 50°02' W 004°57'0 0.0
2017-Nov-07 17:59N 50°02' W 004°57'0 0.0
2017-Nov-07 17:20N 50°02' W 004°57'0 0.1
2017-Nov-07 16:56N 50°02' W 004°57'0 0.0
2017-Nov-07 16:20N 50°02' W 004°57'0 0.1
2017-Nov-07 15:56N 50°02' W 004°57'0 0.0
2017-Nov-07 15:23N 50°02' W 004°57'0 0.1
2017-Nov-07 14:41N 50°02' W 004°57'0 0.0
2017-Nov-07 14:26N 50°02' W 004°57'0 0.0
2017-Nov-07 13:59N 50°02' W 004°57'0 0.0
2017-Nov-07 13:29N 50°02' W 004°57'0 0.0
2017-Nov-07 12:59N 50°02' W 004°57'0 0.0
2017-Nov-07 12:23N 50°02' W 004°57'0 0.0
2017-Nov-07 11:56N 50°02' W 004°57'0 0.0
2017-Nov-07 11:23N 50°02' W 004°57'0 0.0
2017-Nov-07 10:59N 50°02' W 004°57'0 0.3
2017-Nov-07 10:30N 50°02' W 004°57'4 7.7
2017-Nov-07 10:00N 50°00' W 004°52'4 8.4
2017-Nov-07 09:30N 49°58' W 004°46'4 8.1
2017-Nov-07 09:00N 49°56' W 004°41'4 7.8
2017-Nov-07 08:30N 49°53' W 004°37'53 6.2
2017-Nov-06 23:57N 49°50' W 003°16'715.0
2017-Nov-06 23:30N 49°54' W 003°07'714.4
2017-Nov-06 23:01N 49°57' W 002°57'713.6
2017-Nov-06 22:30N 50°00' W 002°48'713.1
2017-Nov-06 22:00N 50°01' W 002°37'2212.0
2017-Nov-06 20:09N 50°07' W 002°04'174 9.8
2017-Nov-06 02:26N 51°02' E 002°16'0 0.0
2017-Nov-06 00:49N 51°02' E 002°16'0 0.0
2017-Nov-05 22:50N 51°02' E 002°16'0 0.0
2017-Nov-05 22:14N 51°02' E 002°16'0 0.0
2017-Nov-05 21:50N 51°02' E 002°16'0 0.0
2017-Nov-05 21:13N 51°02' E 002°16'0 0.0
2017-Nov-05 20:56N 51°02' E 002°16'0 0.0
2017-Nov-05 19:37N 51°02' E 002°16'0 0.0
2017-Nov-05 19:25N 51°02' E 002°16'0 0.0
2017-Nov-05 18:02N 51°02' E 002°16'0 0.0
2017-Nov-05 17:55N 51°02' E 002°16'0 0.0
2017-Nov-05 17:19N 51°02' E 002°16'0 0.0
2017-Nov-05 15:55N 51°02' E 002°16'0 0.0
2017-Nov-05 15:19N 51°02' E 002°16'0 0.0
2017-Nov-05 08:01N 51°02' E 002°16'0 0.0
2017-Nov-05 07:32N 51°02' E 002°16'0 0.0
2017-Nov-05 07:26N 51°02' E 002°16'2 3.7
2017-Nov-05 07:00N 51°03' E 002°18'2 3.3
2017-Nov-05 06:29N 51°03' E 002°21'0 0.8
2017-Nov-05 05:58N 51°03' E 002°21'3 5.8
2017-Nov-05 05:30N 51°04' E 002°17'611.8
2017-Nov-05 05:00N 51°03' E 002°08'612.3
2017-Nov-05 04:30N 51°02' E 001°58'5 9.3
2017-Nov-05 04:00N 51°03' E 001°51'1 2.3
2017-Nov-05 03:30N 51°04' E 001°52'0 0.2
2017-Nov-05 03:00N 51°04' E 001°52'0 0.0
2017-Nov-05 02:30N 51°04' E 001°52'0 0.0
2017-Nov-05 02:00N 51°04' E 001°52'0 0.0
2017-Nov-05 01:30N 51°04' E 001°52'0 0.0
2017-Nov-05 01:00N 51°04' E 001°52'0 0.0
2017-Nov-05 00:30N 51°04' E 001°52'0 0.0
2017-Nov-05 00:00N 51°04' E 001°52'0 0.0
2017-Nov-04 23:30N 51°04' E 001°52'0 0.0
2017-Nov-04 23:00N 51°04' E 001°52'0 0.0
2017-Nov-04 22:30N 51°04' E 001°52'0 0.2
2017-Nov-04 22:00N 51°04' E 001°52'0 0.1
2017-Nov-04 21:30N 51°04' E 001°52'0 0.2
2017-Nov-04 21:00N 51°04' E 001°52'0 0.1
2017-Nov-04 20:30N 51°04' E 001°51'0 0.0
2017-Nov-04 20:00N 51°04' E 001°51'0 0.0
2017-Nov-04 19:30N 51°04' E 001°51'0 0.0
2017-Nov-04 19:00N 51°04' E 001°51'0 0.1
2017-Nov-04 18:30N 51°04' E 001°51'  
Track history (hours):
 
Tides and Currents Weather Stations Pressure Air Temp Water Temp Dewpoint Dewpoint Depression Visibility Wind Speed Wind Dir Waves Ship Positions

Taugas

Last reported at 2017-Nov-14 18:14 UTC. Time now 2017-Nov-23 17:08 UTC.
Position N 36°27' E 014°42'.
Warning: this ship's position is 8 days out of date.

Length 146 m; draft 7.3 m.

Type: Tanker. MMSI: 304067000.

Date/timePositionNaut miles runAvg speedWind from/ knotsBaromVisibWave heightAir tempDewpointWater temp
2017-Nov-14 18:14N 36°27' E 014°42'416.1
2017-Nov-14 17:59N 36°27' E 014°37'816.1
2017-Nov-14 17:28N 36°27' E 014°27'915.9
2017-Nov-14 16:55N 36°30' E 014°16'715.9
2017-Nov-14 16:28N 36°32' E 014°08'915.7
2017-Nov-14 15:53N 36°35' E 013°57'615.6
2017-Nov-14 15:30N 36°37' E 013°50'63314.7
2017-Nov-12 20:29N 36°43' E 000°41'1516.2
2017-Nov-12 19:35N 36°41' E 000°23'316.4
2017-Nov-12 19:26N 36°40' E 000°20'716.2
2017-Nov-12 18:59N 36°38' E 000°12'815.8
2017-Nov-12 18:30N 36°37' E 000°02'3416.2
2017-Nov-12 16:23N 36°30' W 000°40'22216.4
2017-Nov-12 02:51N 35°58' W 005°12'516.0
2017-Nov-12 02:30N 35°58' W 005°18'816.8
2017-Nov-12 02:00N 35°57' W 005°29'17415.7
2017-Nov-11 14:57N 36°26' W 009°01'715.0
2017-Nov-11 14:29N 36°28' W 009°10'715.1
2017-Nov-11 14:00N 36°30' W 009°18'815.5
2017-Nov-11 13:30N 36°35' W 009°26'815.7
2017-Nov-11 13:00N 36°41' W 009°32'815.3
2017-Nov-11 12:29N 36°47' W 009°38'815.6
2017-Nov-11 12:00N 36°55' W 009°40'815.5
2017-Nov-11 11:30N 37°02' W 009°42'815.4
2017-Nov-11 11:00N 37°10' W 009°43'714.4
2017-Nov-11 10:31N 37°17' W 009°44'611.8
2017-Nov-11 10:00N 37°23' W 009°44'2 1.3
2017-Nov-11 08:49N 37°24' W 009°45'0 1.2
2017-Nov-11 08:28N 37°25' W 009°45'1 1.2
2017-Nov-11 07:58N 37°25' W 009°46'1 1.1
2017-Nov-11 07:28N 37°26' W 009°46'1 1.1
2017-Nov-11 06:58N 37°26' W 009°46'1 1.1
2017-Nov-11 06:28N 37°26' W 009°47'1 1.1
2017-Nov-11 05:58N 37°27' W 009°47'1 1.1
2017-Nov-11 05:25N 37°27' W 009°48'1 1.1
2017-Nov-11 04:58N 37°28' W 009°48'0 1.0
2017-Nov-11 04:28N 37°28' W 009°48'0 1.0
2017-Nov-11 03:58N 37°29' W 009°49'0 0.5
2017-Nov-11 03:30N 37°29' W 009°49'510.5
2017-Nov-11 03:01N 37°34' W 009°50'815.5
2017-Nov-11 02:30N 37°41' W 009°53'815.5
2017-Nov-11 02:00N 37°49' W 009°56'815.3
2017-Nov-11 01:30N 37°56' W 009°58'815.2
2017-Nov-11 00:58N 38°04' W 010°01'715.7
2017-Nov-11 00:30N 38°11' W 010°03'815.4
2017-Nov-11 00:00N 38°18' W 010°05'815.3
2017-Nov-10 23:30N 38°26' W 010°08'815.2
2017-Nov-10 22:59N 38°34' W 010°11'715.0
2017-Nov-10 22:30N 38°40' W 010°13'714.7
2017-Nov-10 22:00N 38°48' W 010°14'815.2
2017-Nov-10 21:30N 38°55' W 010°15'815.5
2017-Nov-10 21:00N 39°03' W 010°16'52515.1
2017-Nov-09 10:07N 47°32' W 007°20'615.0
2017-Nov-09 09:45N 47°37' W 007°16'1715.6
2017-Nov-09 08:38N 47°52' W 007°04'215.5
2017-Nov-09 08:29N 47°55' W 007°03'815.4
2017-Nov-09 07:59N 48°02' W 006°58'3214.6
2017-Nov-09 05:46N 48°31' W 006°37'10214.0
2017-Nov-08 22:27N 49°54' W 005°08'711.5
2017-Nov-08 21:52N 49°59' W 005°01'4 9.4
2017-Nov-08 21:29N 50°02' W 004°57'0 0.1
2017-Nov-08 17:56N 50°02' W 004°57'0 0.1
2017-Nov-08 17:20N 50°02' W 004°57'0 0.0
2017-Nov-08 16:50N 50°02' W 004°57'0 0.0
2017-Nov-08 16:29N 50°02' W 004°57'0 0.1
2017-Nov-08 15:59N 50°02' W 004°57'0 0.0
2017-Nov-08 14:23N 50°02' W 004°57'0 0.0
2017-Nov-08 13:53N 50°02' W 004°57'0 0.0
2017-Nov-08 13:29N 50°02' W 004°57'0 0.0
2017-Nov-08 12:17N 50°02' W 004°57'0 0.0
2017-Nov-08 11:14N 50°02' W 004°57'0 0.0
2017-Nov-08 10:53N 50°02' W 004°57'0 0.0
2017-Nov-08 10:26N 50°02' W 004°57'0 0.1
2017-Nov-08 09:53N 50°02' W 004°57'0 0.2
2017-Nov-08 09:29N 50°02' W 004°57'0 0.1
2017-Nov-08 08:56N 50°02' W 004°57'0 0.0
2017-Nov-08 05:38N 50°02' W 004°57'0 0.1
2017-Nov-08 05:29N 50°02' W 004°57'0 0.0
2017-Nov-08 03:59N 50°02' W 004°57'0 0.2
2017-Nov-08 03:29N 50°02' W 004°57'0 0.0
2017-Nov-08 02:47N 50°02' W 004°57'0 0.0
2017-Nov-08 02:26N 50°02' W 004°57'0 0.0
2017-Nov-08 01:59N 50°02' W 004°57'0 0.0
2017-Nov-08 01:29N 50°02' W 004°57'0 0.0
2017-Nov-08 00:50N 50°02' W 004°57'0 0.0
2017-Nov-08 00:23N 50°02' W 004°57'0 0.0
2017-Nov-07 23:59N 50°02' W 004°57'0 0.1
2017-Nov-07 23:20N 50°02' W 004°57'0 0.2
2017-Nov-07 22:41N 50°02' W 004°57'0 0.1
2017-Nov-07 22:29N 50°02' W 004°57'0 0.0
2017-Nov-07 21:59N 50°02' W 004°57'0 0.1
2017-Nov-07 21:23N 50°02' W 004°57'0 0.0
2017-Nov-07 20:47N 50°02' W 004°57'0 0.0
2017-Nov-07 18:53N 50°02' W 004°57'0 0.0
2017-Nov-07 18:29N 50°02' W 004°57'0 0.0
2017-Nov-07 17:59N 50°02' W 004°57'0 0.0
2017-Nov-07 17:20N 50°02' W 004°57'0 0.1
2017-Nov-07 16:56N 50°02' W 004°57'0 0.0
2017-Nov-07 16:20N 50°02' W 004°57'0 0.1
2017-Nov-07 15:56N 50°02' W 004°57'0 0.0
2017-Nov-07 15:23N 50°02' W 004°57'0 0.1
2017-Nov-07 14:41N 50°02' W 004°57'0 0.0
2017-Nov-07 14:26N 50°02' W 004°57'0 0.0
2017-Nov-07 13:59N 50°02' W 004°57'0 0.0
2017-Nov-07 13:29N 50°02' W 004°57'0 0.0
2017-Nov-07 12:59N 50°02' W 004°57'0 0.0
2017-Nov-07 12:23N 50°02' W 004°57'0 0.0
2017-Nov-07 11:56N 50°02' W 004°57'0 0.0
2017-Nov-07 11:23N 50°02' W 004°57'0 0.0
2017-Nov-07 10:59N 50°02' W 004°57'0 0.3
2017-Nov-07 10:30N 50°02' W 004°57'4 7.7
2017-Nov-07 10:00N 50°00' W 004°52'4 8.4
2017-Nov-07 09:30N 49°58' W 004°46'4 8.1
2017-Nov-07 09:00N 49°56' W 004°41'4 7.8
2017-Nov-07 08:30N 49°53' W 004°37'53 6.2
2017-Nov-06 23:57N 49°50' W 003°16'715.0
2017-Nov-06 23:30N 49°54' W 003°07'714.4
2017-Nov-06 23:01N 49°57' W 002°57'713.6
2017-Nov-06 22:30N 50°00' W 002°48'713.1
2017-Nov-06 22:00N 50°01' W 002°37'2212.0
2017-Nov-06 20:09N 50°07' W 002°04'174 9.8
2017-Nov-06 02:26N 51°02' E 002°16'0 0.0
2017-Nov-06 00:49N 51°02' E 002°16'0 0.0
2017-Nov-05 22:50N 51°02' E 002°16'0 0.0
2017-Nov-05 22:14N 51°02' E 002°16'0 0.0
2017-Nov-05 21:50N 51°02' E 002°16'0 0.0
2017-Nov-05 21:13N 51°02' E 002°16'0 0.0
2017-Nov-05 20:56N 51°02' E 002°16'0 0.0
2017-Nov-05 19:37N 51°02' E 002°16'0 0.0
2017-Nov-05 19:25N 51°02' E 002°16'0 0.0
2017-Nov-05 18:02N 51°02' E 002°16'0 0.0
2017-Nov-05 17:55N 51°02' E 002°16'0 0.0
2017-Nov-05 17:19N 51°02' E 002°16'0 0.0
2017-Nov-05 15:55N 51°02' E 002°16'0 0.0
2017-Nov-05 15:19N 51°02' E 002°16'0 0.0
2017-Nov-05 08:01N 51°02' E 002°16'0 0.0
2017-Nov-05 07:32N 51°02' E 002°16'0 0.0
2017-Nov-05 07:26N 51°02' E 002°16'2 3.7
2017-Nov-05 07:00N 51°03' E 002°18'2 3.3
2017-Nov-05 06:29N 51°03' E 002°21'0 0.8
2017-Nov-05 05:58N 51°03' E 002°21'3 5.8
2017-Nov-05 05:30N 51°04' E 002°17'611.8
2017-Nov-05 05:00N 51°03' E 002°08'612.3
2017-Nov-05 04:30N 51°02' E 001°58'5 9.3
2017-Nov-05 04:00N 51°03' E 001°51'1 2.3
2017-Nov-05 03:30N 51°04' E 001°52'0 0.2
2017-Nov-05 03:00N 51°04' E 001°52'0 0.0
2017-Nov-05 02:30N 51°04' E 001°52'0 0.0
2017-Nov-05 02:00N 51°04' E 001°52'0 0.0
2017-Nov-05 01:30N 51°04' E 001°52'0 0.0
2017-Nov-05 01:00N 51°04' E 001°52'0 0.0
2017-Nov-05 00:30N 51°04' E 001°52'0 0.0
2017-Nov-05 00:00N 51°04' E 001°52'0 0.0
2017-Nov-04 23:30N 51°04' E 001°52'0 0.0
2017-Nov-04 23:00N 51°04' E 001°52'0 0.0
2017-Nov-04 22:30N 51°04' E 001°52'0 0.2
2017-Nov-04 22:00N 51°04' E 001°52'0 0.1
2017-Nov-04 21:30N 51°04' E 001°52'0 0.2
2017-Nov-04 21:00N 51°04' E 001°52'0 0.1
2017-Nov-04 20:30N 51°04' E 001°51'0 0.0
2017-Nov-04 20:00N 51°04' E 001°51'0 0.0
2017-Nov-04 19:30N 51°04' E 001°51'0 0.0
2017-Nov-04 19:00N 51°04' E 001°51'0 0.1
2017-Nov-04 18:30N 51°04' E 001°51'  

Dump ship's entire track history